sensor_id;sensor_type;location;lat;lon;timestamp;P1;durP1;ratioP1;P2;durP2;ratioP2
20314;SDS011;10315;50.958;13.080;2023-02-28T00:09:46;11.87;;;6.10;;
20314;SDS011;10315;50.958;13.080;2023-02-28T00:19:47;12.17;;;5.93;;
20314;SDS011;10315;50.958;13.080;2023-02-28T00:29:50;15.57;;;6.50;;
20314;SDS011;10315;50.958;13.080;2023-02-28T00:39:54;12.40;;;6.80;;
20314;SDS011;10315;50.958;13.080;2023-02-28T00:49:57;11.43;;;6.20;;
20314;SDS011;10315;50.958;13.080;2023-02-28T00:59:58;13.43;;;7.20;;
20314;SDS011;10315;50.958;13.080;2023-02-28T01:10:01;18.23;;;7.03;;
20314;SDS011;10315;50.958;13.080;2023-02-28T01:20:05;18.20;;;8.50;;
20314;SDS011;10315;50.958;13.080;2023-02-28T01:30:10;14.40;;;6.83;;
20314;SDS011;10315;50.958;13.080;2023-02-28T01:40:17;12.43;;;6.47;;
20314;SDS011;10315;50.958;13.080;2023-02-28T01:50:21;11.50;;;6.03;;
20314;SDS011;10315;50.958;13.080;2023-02-28T02:00:27;17.23;;;8.27;;
20314;SDS011;10315;50.958;13.080;2023-02-28T02:10:32;17.13;;;8.37;;
20314;SDS011;10315;50.958;13.080;2023-02-28T02:20:46;15.50;;;7.90;;
20314;SDS011;10315;50.958;13.080;2023-02-28T02:31:26;14.93;;;8.10;;
20314;SDS011;10315;50.958;13.080;2023-02-28T02:41:41;18.53;;;9.00;;
20314;SDS011;10315;50.958;13.080;2023-02-28T02:51:48;15.40;;;9.43;;
20314;SDS011;10315;50.958;13.080;2023-02-28T03:01:53;19.57;;;9.40;;
20314;SDS011;10315;50.958;13.080;2023-02-28T03:11:58;21.60;;;10.23;;
20314;SDS011;10315;50.958;13.080;2023-02-28T03:22:05;21.53;;;10.10;;
20314;SDS011;10315;50.958;13.080;2023-02-28T03:32:21;19.30;;;9.70;;
20314;SDS011;10315;50.958;13.080;2023-02-28T03:42:27;17.53;;;9.33;;
20314;SDS011;10315;50.958;13.080;2023-02-28T03:52:31;21.93;;;10.00;;
20314;SDS011;10315;50.958;13.080;2023-02-28T04:02:37;19.90;;;10.50;;
20314;SDS011;10315;50.958;13.080;2023-02-28T04:12:39;25.30;;;10.83;;
20314;SDS011;10315;50.958;13.080;2023-02-28T04:22:42;24.33;;;11.20;;
20314;SDS011;10315;50.958;13.080;2023-02-28T04:32:46;23.60;;;10.73;;
20314;SDS011;10315;50.958;13.080;2023-02-28T04:42:48;25.37;;;11.13;;
20314;SDS011;10315;50.958;13.080;2023-02-28T04:52:50;22.20;;;10.30;;
20314;SDS011;10315;50.958;13.080;2023-02-28T05:02:53;26.07;;;12.27;;
20314;SDS011;10315;50.958;13.080;2023-02-28T05:12:54;28.27;;;11.90;;
20314;SDS011;10315;50.958;13.080;2023-02-28T05:22:57;25.63;;;11.90;;
20314;SDS011;10315;50.958;13.080;2023-02-28T05:33:00;25.33;;;11.63;;
20314;SDS011;10315;50.958;13.080;2023-02-28T05:43:03;29.37;;;12.43;;
20314;SDS011;10315;50.958;13.080;2023-02-28T05:53:04;33.37;;;13.43;;
20314;SDS011;10315;50.958;13.080;2023-02-28T06:03:07;29.07;;;13.33;;
20314;SDS011;10315;50.958;13.080;2023-02-28T06:13:09;26.53;;;12.30;;
20314;SDS011;10315;50.958;13.080;2023-02-28T06:23:13;31.43;;;13.83;;
20314;SDS011;10315;50.958;13.080;2023-02-28T06:33:23;34.23;;;14.20;;
20314;SDS011;10315;50.958;13.080;2023-02-28T06:43:32;32.37;;;13.43;;
20314;SDS011;10315;50.958;13.080;2023-02-28T06:53:37;30.60;;;12.77;;
20314;SDS011;10315;50.958;13.080;2023-02-28T07:03:40;21.63;;;10.60;;
20314;SDS011;10315;50.958;13.080;2023-02-28T07:13:41;20.10;;;10.03;;
20314;SDS011;10315;50.958;13.080;2023-02-28T07:23:44;15.80;;;8.97;;
20314;SDS011;10315;50.958;13.080;2023-02-28T07:33:46;12.97;;;7.87;;
20314;SDS011;10315;50.958;13.080;2023-02-28T07:43:54;11.55;;;7.20;;
20314;SDS011;10315;50.958;13.080;2023-02-28T07:53:57;13.40;;;7.53;;
20314;SDS011;10315;50.958;13.080;2023-02-28T08:04:06;11.27;;;7.28;;
20314;SDS011;10315;50.958;13.080;2023-02-28T08:14:07;13.80;;;8.75;;
20314;SDS011;10315;50.958;13.080;2023-02-28T08:24:10;17.83;;;9.63;;
20314;SDS011;10315;50.958;13.080;2023-02-28T08:34:13;36.97;;;14.73;;
20314;SDS011;10315;50.958;13.080;2023-02-28T17:42:42;30.43;;;12.40;;
20314;SDS011;10315;50.958;13.080;2023-02-28T17:52:45;31.93;;;12.57;;
20314;SDS011;10315;50.958;13.080;2023-02-28T18:02:46;28.80;;;11.93;;
20314;SDS011;10315;50.958;13.080;2023-02-28T18:12:50;32.40;;;12.90;;
20314;SDS011;10315;50.958;13.080;2023-02-28T18:22:52;38.57;;;14.17;;
20314;SDS011;10315;50.958;13.080;2023-02-28T18:32:55;37.10;;;12.93;;
20314;SDS011;10315;50.958;13.080;2023-02-28T18:42:57;32.83;;;12.67;;
20314;SDS011;10315;50.958;13.080;2023-02-28T18:53:00;33.53;;;13.33;;
20314;SDS011;10315;50.958;13.080;2023-02-28T19:03:02;31.83;;;12.77;;
20314;SDS011;10315;50.958;13.080;2023-02-28T19:13:05;30.40;;;11.23;;
20314;SDS011;10315;50.958;13.080;2023-02-28T19:23:07;30.17;;;12.37;;
20314;SDS011;10315;50.958;13.080;2023-02-28T19:33:11;27.00;;;11.90;;
20314;SDS011;10315;50.958;13.080;2023-02-28T19:43:13;29.87;;;12.10;;
20314;SDS011;10315;50.958;13.080;2023-02-28T19:53:16;37.93;;;14.63;;
20314;SDS011;10315;50.958;13.080;2023-02-28T20:03:18;28.03;;;12.63;;
20314;SDS011;10315;50.958;13.080;2023-02-28T20:13:21;27.07;;;12.33;;
20314;SDS011;10315;50.958;13.080;2023-02-28T20:23:25;33.27;;;13.67;;
20314;SDS011;10315;50.958;13.080;2023-02-28T20:33:33;38.30;;;15.90;;
20314;SDS011;10315;50.958;13.080;2023-02-28T20:43:34;39.57;;;14.60;;
20314;SDS011;10315;50.958;13.080;2023-02-28T20:53:37;38.93;;;15.07;;
20314;SDS011;10315;50.958;13.080;2023-02-28T21:03:39;36.10;;;15.03;;
20314;SDS011;10315;50.958;13.080;2023-02-28T21:13:42;34.50;;;14.43;;
20314;SDS011;10315;50.958;13.080;2023-02-28T21:23:45;33.80;;;13.50;;
20314;SDS011;10315;50.958;13.080;2023-02-28T21:33:50;37.17;;;14.10;;
20314;SDS011;10315;50.958;13.080;2023-02-28T21:43:52;40.20;;;14.90;;
20314;SDS011;10315;50.958;13.080;2023-02-28T21:53:57;34.37;;;14.70;;
20314;SDS011;10315;50.958;13.080;2023-02-28T22:03:59;39.37;;;14.70;;
20314;SDS011;10315;50.958;13.080;2023-02-28T22:14:06;42.73;;;15.67;;
20314;SDS011;10315;50.958;13.080;2023-02-28T22:24:09;50.93;;;16.17;;
20314;SDS011;10315;50.958;13.080;2023-02-28T22:34:12;42.40;;;15.63;;
20314;SDS011;10315;50.958;13.080;2023-02-28T22:44:14;32.43;;;14.20;;
20314;SDS011;10315;50.958;13.080;2023-02-28T22:54:17;38.10;;;14.97;;
20314;SDS011;10315;50.958;13.080;2023-02-28T23:04:19;40.23;;;14.20;;
20314;SDS011;10315;50.958;13.080;2023-02-28T23:14:25;30.40;;;12.80;;
20314;SDS011;10315;50.958;13.080;2023-02-28T23:24:28;33.10;;;12.97;;
20314;SDS011;10315;50.958;13.080;2023-02-28T23:34:35;33.57;;;12.90;;
20314;SDS011;10315;50.958;13.080;2023-02-28T23:44:38;31.40;;;12.70;;
20314;SDS011;10315;50.958;13.080;2023-02-28T23:54:42;32.00;;;13.30;;
